CDT,Max TemperatureF,Mean TemperatureF,Min TemperatureF,Max Dew PointF,MeanDew PointF,Min DewpointF,Max Humidity, Mean Humidity, Min Humidity, Max Sea Level PressureIn, Mean Sea Level PressureIn, Min Sea Level PressureIn, Max VisibilityMiles, Mean VisibilityMiles, Min VisibilityMiles, Max Wind SpeedMPH, Mean Wind SpeedMPH, Max Gust SpeedMPH,PrecipitationIn, CloudCover, Events, WindDirDegrees
2013-3-1,26,16,5,19,16,3,92,75,57,30.28,30.22,30.14,10,7,2,22,8,25,0.01,6,Snow,13
2013-3-2,27,16,4,11,6,2,96,69,42,30.30,30.25,30.20,10,10,10,14,6,16,0.00,0,,353
2013-3-3,28,13,-3,9,4,-6,88,67,46,30.20,30.16,30.07,10,10,9,6,2,,0.00,0,,56
2013-3-4,31,19,7,25,17,5,83,73,63,30.15,30.08,30.01,10,8,1,13,6,,0.01,6,Snow,99
2013-3-5,30,28,25,27,25,21,92,85,78,30.13,29.97,29.88,10,3,0,22,12,29,0.52,8,Fog-Snow,32
2013-3-6,32,28,23,24,21,18,81,74,66,30.35,30.27,30.10,10,10,10,15,8,18,0.00,7,,326
2013-3-7,34,19,4,18,14,2,92,72,51,30.45,30.42,30.31,10,9,7,9,2,10,0.00,0,,61
2013-3-8,37,22,7,25,16,3,96,78,59,30.48,30.42,30.29,10,6,0,17,6,22,0.00,0,Fog,166
2013-3-9,39,35,30,36,31,23,92,81,70,30.27,30.00,29.81,10,6,3,22,11,32,0.41,7,Rain-Snow,165
2013-3-10,40,37,34,39,36,33,100,96,92,29.82,29.73,29.63,9,2,0,22,9,28,0.93,8,Fog-Rain,51
2013-3-11,34,32,30,34,30,25,100,89,78,29.79,29.63,29.55,10,5,1,15,7,22,0.02,8,Snow,318
2013-3-12,33,29,24,25,22,16,85,74,63,30.04,29.88,29.76,10,6,1,30,8,23,0.01,8,Snow,291
2013-3-13,32,26,19,19,10,4,73,51,29,30.34,30.23,30.02,10,10,5,16,7,22,T,1,Snow,316
2013-3-14,33,24,15,27,20,11,92,76,59,30.33,30.23,30.09,10,8,2,13,4,29,0.02,4,Snow,181
2013-3-15,36,31,25,32,29,25,100,89,78,30.06,29.91,29.82,10,4,2,16,5,,0.13,6,Rain,72
2013-3-16,30,26,21,25,19,16,92,75,58,30.17,30.00,29.81,10,9,5,20,9,23,T,7,Snow,355
2013-3-17,31,24,17,18,14,7,81,70,58,30.29,30.18,30.03,10,10,10,16,10,26,0.00,1,,60
2013-3-18,33,25,16,30,23,9,92,77,62,29.99,29.70,29.57,10,5,0,21,8,31,0.30,7,Fog-Snow,170
2013-3-19,30,21,11,10,7,5,73,55,36,30.09,29.92,29.72,10,9,2,20,11,30,T,3,Snow,277
2013-3-20,21,15,9,5,2,-3,63,56,49,30.12,30.09,30.06,10,10,10,20,10,25,0.00,2,,300
2013-3-21,28,17,5,10,6,0,80,61,42,30.10,30.07,30.03,10,10,10,13,4,16,0.00,0,,311
2013-3-22,34,22,9,16,11,6,83,61,39,30.10,30.08,30.05,10,10,10,8,2,12,0.00,0,,32
2013-3-23,36,26,15,21,17,14,84,66,47,30.16,30.12,30.08,10,10,8,12,3,21,0.00,0,,43
2013-3-24,31,30,28,27,24,21,92,81,69,30.09,29.91,29.79,10,6,0,24,15,30,0.04,8,Fog-Snow,27
2013-3-25,34,30,25,24,21,18,81,71,61,30.12,29.96,29.83,10,10,10,21,11,25,0.00,7,,353
2013-3-26,40,35,30,27,23,20,72,61,50,30.28,30.22,30.13,10,10,10,14,6,18,0.00,6,,322
2013-3-27,43,35,26,24,21,18,75,58,40,30.35,30.31,30.28,10,10,10,12,4,25,0.00,6,,309
2013-3-28,46,34,22,22,20,18,81,57,33,30.38,30.34,30.30,10,10,10,15,2,,0.00,0,,335
2013-3-29,49,36,23,26,22,19,88,60,31,30.36,30.31,30.24,10,10,10,9,2,21,0.00,0,,102
2013-3-30,52,43,34,41,32,23,96,75,53,30.24,30.01,29.83,10,9,4,20,8,25,0.01,7,Rain,198
2013-3-31,47,39,31,41,33,18,96,74,51,29.94,29.80,29.74,10,7,2,20,8,29,T,5,,292